sensor_id;sensor_type;location;lat;lon;timestamp;P1;durP1;ratioP1;P2;durP2;ratioP2
13933;SDS011;7039;52.168;9.866;2023-09-07T00:02:23;6.00;;;4.40;;
13933;SDS011;7039;52.168;9.866;2023-09-07T00:04:49;5.87;;;4.60;;
13933;SDS011;7039;52.168;9.866;2023-09-07T00:07:15;5.33;;;4.10;;
13933;SDS011;7039;52.168;9.866;2023-09-07T00:09:43;5.67;;;4.13;;
13933;SDS011;7039;52.168;9.866;2023-09-07T00:12:12;7.03;;;4.90;;
13933;SDS011;7039;52.168;9.866;2023-09-07T00:14:38;4.83;;;4.07;;
13933;SDS011;7039;52.168;9.866;2023-09-07T00:17:05;6.63;;;4.40;;
13933;SDS011;7039;52.168;9.866;2023-09-07T00:19:31;5.13;;;4.20;;
13933;SDS011;7039;52.168;9.866;2023-09-07T00:22:01;8.60;;;4.60;;
13933;SDS011;7039;52.168;9.866;2023-09-07T00:24:29;5.73;;;4.43;;
13933;SDS011;7039;52.168;9.866;2023-09-07T00:26:57;5.47;;;4.50;;
13933;SDS011;7039;52.168;9.866;2023-09-07T00:29:24;6.17;;;4.70;;
13933;SDS011;7039;52.168;9.866;2023-09-07T00:31:51;5.53;;;4.37;;
13933;SDS011;7039;52.168;9.866;2023-09-07T00:34:17;7.10;;;4.70;;
13933;SDS011;7039;52.168;9.866;2023-09-07T00:36:44;4.90;;;4.20;;
13933;SDS011;7039;52.168;9.866;2023-09-07T00:39:10;8.37;;;4.70;;
13933;SDS011;7039;52.168;9.866;2023-09-07T03:14:13;11.03;;;5.27;;
13933;SDS011;7039;52.168;9.866;2023-09-07T04:24:09;9.70;;;6.27;;
13933;SDS011;7039;52.168;9.866;2023-09-07T04:29:11;12.37;;;6.53;;
13933;SDS011;7039;52.168;9.866;2023-09-07T04:52:48;7.60;;;5.53;;
13933;SDS011;7039;52.168;9.866;2023-09-07T07:10:05;9.33;;;6.97;;
13933;SDS011;7039;52.168;9.866;2023-09-07T07:12:40;10.57;;;7.20;;
13933;SDS011;7039;52.168;9.866;2023-09-07T07:15:29;9.37;;;6.87;;
13933;SDS011;7039;52.168;9.866;2023-09-07T07:18:07;8.67;;;6.90;;
13933;SDS011;7039;52.168;9.866;2023-09-07T07:20:34;8.10;;;6.87;;
13933;SDS011;7039;52.168;9.866;2023-09-07T07:23:12;11.63;;;7.20;;
13933;SDS011;7039;52.168;9.866;2023-09-07T07:25:48;7.83;;;7.00;;
13933;SDS011;7039;52.168;9.866;2023-09-07T07:28:16;8.83;;;7.30;;
13933;SDS011;7039;52.168;9.866;2023-09-07T07:30:42;9.53;;;7.00;;
13933;SDS011;7039;52.168;9.866;2023-09-07T07:33:10;8.50;;;6.80;;
13933;SDS011;7039;52.168;9.866;2023-09-07T07:35:37;10.47;;;7.20;;
13933;SDS011;7039;52.168;9.866;2023-09-07T07:38:03;8.30;;;6.33;;
13933;SDS011;7039;52.168;9.866;2023-09-07T07:40:31;11.77;;;7.93;;
13933;SDS011;7039;52.168;9.866;2023-09-07T07:42:59;17.07;;;7.73;;
13933;SDS011;7039;52.168;9.866;2023-09-07T07:45:25;10.03;;;7.97;;
13933;SDS011;7039;52.168;9.866;2023-09-07T07:47:52;11.37;;;7.17;;
13933;SDS011;7039;52.168;9.866;2023-09-07T07:50:19;10.77;;;7.20;;
13933;SDS011;7039;52.168;9.866;2023-09-07T07:52:46;11.80;;;7.57;;
13933;SDS011;7039;52.168;9.866;2023-09-07T07:55:12;11.57;;;7.40;;
13933;SDS011;7039;52.168;9.866;2023-09-07T07:57:39;13.23;;;7.53;;
13933;SDS011;7039;52.168;9.866;2023-09-07T08:00:07;11.33;;;7.40;;
13933;SDS011;7039;52.168;9.866;2023-09-07T08:02:35;14.10;;;7.70;;
13933;SDS011;7039;52.168;9.866;2023-09-07T08:05:01;9.73;;;7.67;;
13933;SDS011;7039;52.168;9.866;2023-09-07T08:07:28;11.37;;;7.87;;
13933;SDS011;7039;52.168;9.866;2023-09-07T08:09:54;10.70;;;8.10;;
13933;SDS011;7039;52.168;9.866;2023-09-07T08:12:21;10.77;;;8.30;;
13933;SDS011;7039;52.168;9.866;2023-09-07T08:14:47;14.23;;;8.40;;
13933;SDS011;7039;52.168;9.866;2023-09-07T08:17:15;12.63;;;8.83;;
13933;SDS011;7039;52.168;9.866;2023-09-07T08:19:41;16.33;;;8.33;;
13933;SDS011;7039;52.168;9.866;2023-09-07T08:22:09;9.40;;;8.40;;
13933;SDS011;7039;52.168;9.866;2023-09-07T08:24:35;12.00;;;8.17;;
13933;SDS011;7039;52.168;9.866;2023-09-07T08:27:02;9.73;;;7.90;;
13933;SDS011;7039;52.168;9.866;2023-09-07T08:29:29;9.93;;;7.93;;
13933;SDS011;7039;52.168;9.866;2023-09-07T08:31:57;10.17;;;8.03;;
13933;SDS011;7039;52.168;9.866;2023-09-07T08:34:25;12.40;;;7.67;;
13933;SDS011;7039;52.168;9.866;2023-09-07T08:36:52;10.67;;;7.30;;
13933;SDS011;7039;52.168;9.866;2023-09-07T08:39:20;9.57;;;7.80;;
13933;SDS011;7039;52.168;9.866;2023-09-07T08:41:47;9.90;;;7.70;;
13933;SDS011;7039;52.168;9.866;2023-09-07T08:44:15;9.00;;;7.07;;
13933;SDS011;7039;52.168;9.866;2023-09-07T08:46:44;8.47;;;7.10;;
13933;SDS011;7039;52.168;9.866;2023-09-07T08:49:11;9.93;;;6.43;;
13933;SDS011;7039;52.168;9.866;2023-09-07T08:51:39;8.45;;;7.55;;
13933;SDS011;7039;52.168;9.866;2023-09-07T08:54:06;8.38;;;7.10;;
13933;SDS011;7039;52.168;9.866;2023-09-07T08:56:33;9.27;;;7.07;;
13933;SDS011;7039;52.168;9.866;2023-09-07T08:59:00;10.90;;;7.30;;
13933;SDS011;7039;52.168;9.866;2023-09-07T09:01:28;13.57;;;7.68;;
13933;SDS011;7039;52.168;9.866;2023-09-07T09:03:56;8.82;;;7.03;;
13933;SDS011;7039;52.168;9.866;2023-09-07T09:06:23;9.25;;;7.38;;
13933;SDS011;7039;52.168;9.866;2023-09-07T09:08:52;12.80;;;7.57;;
13933;SDS011;7039;52.168;9.866;2023-09-07T09:11:20;10.55;;;7.13;;
13933;SDS011;7039;52.168;9.866;2023-09-07T09:13:47;9.50;;;7.60;;
13933;SDS011;7039;52.168;9.866;2023-09-07T09:16:14;13.77;;;7.82;;
13933;SDS011;7039;52.168;9.866;2023-09-07T09:18:47;9.93;;;8.07;;
13933;SDS011;7039;52.168;9.866;2023-09-07T09:21:14;9.32;;;8.00;;
13933;SDS011;7039;52.168;9.866;2023-09-07T09:23:41;13.02;;;7.50;;
13933;SDS011;7039;52.168;9.866;2023-09-07T09:26:09;13.05;;;7.15;;
13933;SDS011;7039;52.168;9.866;2023-09-07T09:28:35;11.40;;;7.40;;
13933;SDS011;7039;52.168;9.866;2023-09-07T09:31:02;12.18;;;7.22;;
13933;SDS011;7039;52.168;9.866;2023-09-07T09:33:30;9.13;;;7.53;;
13933;SDS011;7039;52.168;9.866;2023-09-07T09:35:57;10.35;;;7.50;;
13933;SDS011;7039;52.168;9.866;2023-09-07T09:38:23;12.80;;;7.20;;
13933;SDS011;7039;52.168;9.866;2023-09-07T09:40:51;10.33;;;7.13;;
13933;SDS011;7039;52.168;9.866;2023-09-07T09:43:20;8.10;;;7.32;;
13933;SDS011;7039;52.168;9.866;2023-09-07T09:45:46;10.13;;;6.68;;
13933;SDS011;7039;52.168;9.866;2023-09-07T09:48:15;12.38;;;6.80;;
13933;SDS011;7039;52.168;9.866;2023-09-07T09:50:44;9.52;;;6.72;;
13933;SDS011;7039;52.168;9.866;2023-09-07T09:53:13;11.27;;;7.35;;
13933;SDS011;7039;52.168;9.866;2023-09-07T09:55:43;11.68;;;7.32;;
13933;SDS011;7039;52.168;9.866;2023-09-07T09:58:11;11.80;;;6.75;;
13933;SDS011;7039;52.168;9.866;2023-09-07T10:00:39;11.93;;;6.68;;
13933;SDS011;7039;52.168;9.866;2023-09-07T10:03:07;7.45;;;6.25;;
13933;SDS011;7039;52.168;9.866;2023-09-07T10:05:36;9.68;;;6.63;;
13933;SDS011;7039;52.168;9.866;2023-09-07T10:08:09;8.10;;;6.50;;
13933;SDS011;7039;52.168;9.866;2023-09-07T10:10:38;8.27;;;6.85;;
13933;SDS011;7039;52.168;9.866;2023-09-07T10:13:07;11.70;;;7.05;;
13933;SDS011;7039;52.168;9.866;2023-09-07T10:15:33;7.82;;;6.40;;
13933;SDS011;7039;52.168;9.866;2023-09-07T10:18:06;9.10;;;6.35;;
13933;SDS011;7039;52.168;9.866;2023-09-07T10:20:45;7.43;;;6.43;;
13933;SDS011;7039;52.168;9.866;2023-09-07T10:23:14;9.32;;;6.65;;
13933;SDS011;7039;52.168;9.866;2023-09-07T10:25:40;10.97;;;7.03;;
13933;SDS011;7039;52.168;9.866;2023-09-07T10:28:16;6.65;;;5.95;;
13933;SDS011;7039;52.168;9.866;2023-09-07T10:30:44;9.20;;;6.17;;
13933;SDS011;7039;52.168;9.866;2023-09-07T10:33:20;9.70;;;6.40;;
13933;SDS011;7039;52.168;9.866;2023-09-07T10:35:46;6.72;;;5.65;;
13933;SDS011;7039;52.168;9.866;2023-09-07T10:38:13;7.53;;;6.10;;
13933;SDS011;7039;52.168;9.866;2023-09-07T10:40:40;7.40;;;5.83;;
13933;SDS011;7039;52.168;9.866;2023-09-07T10:43:09;9.02;;;6.03;;
13933;SDS011;7039;52.168;9.866;2023-09-07T10:45:36;6.28;;;5.68;;
13933;SDS011;7039;52.168;9.866;2023-09-07T10:48:03;7.43;;;5.70;;
13933;SDS011;7039;52.168;9.866;2023-09-07T10:50:31;13.03;;;5.90;;
13933;SDS011;7039;52.168;9.866;2023-09-07T10:53:08;7.93;;;5.80;;
13933;SDS011;7039;52.168;9.866;2023-09-07T10:55:36;7.95;;;5.70;;
13933;SDS011;7039;52.168;9.866;2023-09-07T10:58:03;8.70;;;5.90;;
13933;SDS011;7039;52.168;9.866;2023-09-07T11:00:29;9.68;;;5.53;;
13933;SDS011;7039;52.168;9.866;2023-09-07T11:02:56;6.90;;;5.70;;
13933;SDS011;7039;52.168;9.866;2023-09-07T11:05:22;6.20;;;5.60;;
13933;SDS011;7039;52.168;9.866;2023-09-07T11:07:51;6.73;;;5.70;;
13933;SDS011;7039;52.168;9.866;2023-09-07T11:10:17;6.20;;;5.60;;
13933;SDS011;7039;52.168;9.866;2023-09-07T11:12:44;6.90;;;5.55;;
13933;SDS011;7039;52.168;9.866;2023-09-07T11:15:12;5.70;;;5.20;;
13933;SDS011;7039;52.168;9.866;2023-09-07T11:17:38;6.65;;;5.75;;
13933;SDS011;7039;52.168;9.866;2023-09-07T11:20:06;7.72;;;5.72;;
13933;SDS011;7039;52.168;9.866;2023-09-07T11:22:33;6.30;;;5.55;;
13933;SDS011;7039;52.168;9.866;2023-09-07T11:25:01;9.35;;;5.50;;
13933;SDS011;7039;52.168;9.866;2023-09-07T11:27:28;7.05;;;5.95;;
13933;SDS011;7039;52.168;9.866;2023-09-07T11:29:56;8.65;;;5.47;;
13933;SDS011;7039;52.168;9.866;2023-09-07T11:32:23;8.43;;;5.60;;
13933;SDS011;7039;52.168;9.866;2023-09-07T11:34:50;6.35;;;5.75;;
13933;SDS011;7039;52.168;9.866;2023-09-07T11:37:23;7.00;;;5.60;;
13933;SDS011;7039;52.168;9.866;2023-09-07T11:39:51;6.88;;;5.40;;
13933;SDS011;7039;52.168;9.866;2023-09-07T11:42:18;7.78;;;5.65;;
13933;SDS011;7039;52.168;9.866;2023-09-07T11:44:45;6.50;;;5.57;;
13933;SDS011;7039;52.168;9.866;2023-09-07T11:47:11;6.55;;;5.55;;
13933;SDS011;7039;52.168;9.866;2023-09-07T11:49:38;8.55;;;5.65;;
13933;SDS011;7039;52.168;9.866;2023-09-07T12:45:55;8.63;;;5.55;;
13933;SDS011;7039;52.168;9.866;2023-09-07T12:48:21;7.40;;;5.55;;
13933;SDS011;7039;52.168;9.866;2023-09-07T12:50:49;8.77;;;5.20;;
13933;SDS011;7039;52.168;9.866;2023-09-07T12:53:16;5.57;;;4.97;;
13933;SDS011;7039;52.168;9.866;2023-09-07T12:55:44;6.05;;;5.20;;
13933;SDS011;7039;52.168;9.866;2023-09-07T12:58:10;10.18;;;5.88;;
13933;SDS011;7039;52.168;9.866;2023-09-07T13:00:37;11.87;;;5.77;;
13933;SDS011;7039;52.168;9.866;2023-09-07T13:03:04;10.27;;;6.00;;
13933;SDS011;7039;52.168;9.866;2023-09-07T13:05:31;7.87;;;5.60;;
13933;SDS011;7039;52.168;9.866;2023-09-07T13:07:58;8.70;;;5.30;;
13933;SDS011;7039;52.168;9.866;2023-09-07T13:10:27;7.00;;;5.32;;
13933;SDS011;7039;52.168;9.866;2023-09-07T13:12:54;7.65;;;5.35;;
13933;SDS011;7039;52.168;9.866;2023-09-07T13:15:21;6.88;;;5.68;;
13933;SDS011;7039;52.168;9.866;2023-09-07T13:17:47;7.53;;;4.90;;
13933;SDS011;7039;52.168;9.866;2023-09-07T13:20:14;7.88;;;5.38;;
13933;SDS011;7039;52.168;9.866;2023-09-07T13:22:41;7.35;;;5.40;;
13933;SDS011;7039;52.168;9.866;2023-09-07T13:25:09;6.97;;;5.03;;
13933;SDS011;7039;52.168;9.866;2023-09-07T13:27:35;9.95;;;5.03;;
13933;SDS011;7039;52.168;9.866;2023-09-07T13:30:02;9.45;;;4.95;;
13933;SDS011;7039;52.168;9.866;2023-09-07T13:32:29;8.23;;;4.72;;
13933;SDS011;7039;52.168;9.866;2023-09-07T13:34:57;6.63;;;5.32;;
13933;SDS011;7039;52.168;9.866;2023-09-07T13:37:23;6.63;;;5.07;;
13933;SDS011;7039;52.168;9.866;2023-09-07T13:39:50;8.90;;;5.90;;
13933;SDS011;7039;52.168;9.866;2023-09-07T13:42:18;7.22;;;4.82;;
13933;SDS011;7039;52.168;9.866;2023-09-07T13:44:44;5.60;;;5.03;;
13933;SDS011;7039;52.168;9.866;2023-09-07T13:47:12;13.13;;;5.07;;
13933;SDS011;7039;52.168;9.866;2023-09-07T13:49:38;5.50;;;5.00;;
13933;SDS011;7039;52.168;9.866;2023-09-07T13:52:05;5.78;;;4.90;;
13933;SDS011;7039;52.168;9.866;2023-09-07T13:54:31;8.32;;;4.75;;
13933;SDS011;7039;52.168;9.866;2023-09-07T13:56:58;11.05;;;5.20;;
13933;SDS011;7039;52.168;9.866;2023-09-07T13:59:26;5.10;;;4.70;;
13933;SDS011;7039;52.168;9.866;2023-09-07T14:01:57;4.93;;;4.45;;
13933;SDS011;7039;52.168;9.866;2023-09-07T14:04:24;5.18;;;4.65;;
13933;SDS011;7039;52.168;9.866;2023-09-07T14:06:50;7.80;;;5.25;;
13933;SDS011;7039;52.168;9.866;2023-09-07T14:09:17;7.68;;;5.30;;
13933;SDS011;7039;52.168;9.866;2023-09-07T14:11:43;7.97;;;4.85;;
13933;SDS011;7039;52.168;9.866;2023-09-07T14:14:10;5.40;;;4.90;;
13933;SDS011;7039;52.168;9.866;2023-09-07T14:16:38;5.05;;;4.53;;
13933;SDS011;7039;52.168;9.866;2023-09-07T14:19:04;5.30;;;4.78;;
13933;SDS011;7039;52.168;9.866;2023-09-07T14:21:31;6.90;;;4.57;;
13933;SDS011;7039;52.168;9.866;2023-09-07T14:23:57;8.82;;;4.63;;
13933;SDS011;7039;52.168;9.866;2023-09-07T14:26:24;11.02;;;5.05;;
13933;SDS011;7039;52.168;9.866;2023-09-07T14:28:50;6.70;;;4.97;;
13933;SDS011;7039;52.168;9.866;2023-09-07T14:31:16;5.72;;;4.85;;
13933;SDS011;7039;52.168;9.866;2023-09-07T14:33:44;7.50;;;4.93;;
13933;SDS011;7039;52.168;9.866;2023-09-07T14:36:11;4.75;;;4.25;;
13933;SDS011;7039;52.168;9.866;2023-09-07T14:38:37;7.05;;;4.75;;
13933;SDS011;7039;52.168;9.866;2023-09-07T14:41:06;5.70;;;4.40;;
13933;SDS011;7039;52.168;9.866;2023-09-07T14:43:33;12.23;;;4.60;;
13933;SDS011;7039;52.168;9.866;2023-09-07T14:45:59;6.25;;;4.90;;
13933;SDS011;7039;52.168;9.866;2023-09-07T14:48:26;6.03;;;4.50;;
13933;SDS011;7039;52.168;9.866;2023-09-07T14:50:54;12.90;;;5.45;;
13933;SDS011;7039;52.168;9.866;2023-09-07T14:53:20;6.10;;;4.13;;
13933;SDS011;7039;52.168;9.866;2023-09-07T14:55:47;7.50;;;4.28;;
13933;SDS011;7039;52.168;9.866;2023-09-07T14:58:13;5.32;;;4.82;;
13933;SDS011;7039;52.168;9.866;2023-09-07T15:00:40;8.30;;;4.43;;
13933;SDS011;7039;52.168;9.866;2023-09-07T15:03:06;5.25;;;4.60;;
13933;SDS011;7039;52.168;9.866;2023-09-07T15:05:33;4.70;;;4.20;;
13933;SDS011;7039;52.168;9.866;2023-09-07T15:08:01;6.63;;;4.45;;
13933;SDS011;7039;52.168;9.866;2023-09-07T15:10:29;5.28;;;4.70;;
13933;SDS011;7039;52.168;9.866;2023-09-07T15:12:57;6.55;;;4.57;;
13933;SDS011;7039;52.168;9.866;2023-09-07T15:15:23;10.15;;;4.70;;
13933;SDS011;7039;52.168;9.866;2023-09-07T15:17:50;10.23;;;4.35;;
13933;SDS011;7039;52.168;9.866;2023-09-07T15:20:16;6.75;;;4.28;;
13933;SDS011;7039;52.168;9.866;2023-09-07T15:22:43;5.80;;;4.50;;
13933;SDS011;7039;52.168;9.866;2023-09-07T15:25:10;6.45;;;4.47;;
13933;SDS011;7039;52.168;9.866;2023-09-07T15:27:37;9.23;;;4.78;;
13933;SDS011;7039;52.168;9.866;2023-09-07T15:30:04;8.93;;;4.72;;
13933;SDS011;7039;52.168;9.866;2023-09-07T15:32:31;6.70;;;4.60;;
13933;SDS011;7039;52.168;9.866;2023-09-07T15:34:57;8.30;;;4.47;;
13933;SDS011;7039;52.168;9.866;2023-09-07T15:37:24;8.27;;;4.55;;
13933;SDS011;7039;52.168;9.866;2023-09-07T15:39:50;12.52;;;4.85;;
13933;SDS011;7039;52.168;9.866;2023-09-07T15:42:18;7.93;;;4.60;;
13933;SDS011;7039;52.168;9.866;2023-09-07T15:44:45;4.72;;;4.30;;
13933;SDS011;7039;52.168;9.866;2023-09-07T15:47:11;6.80;;;4.60;;
13933;SDS011;7039;52.168;9.866;2023-09-07T15:49:38;13.02;;;4.65;;
13933;SDS011;7039;52.168;9.866;2023-09-07T15:52:06;8.65;;;4.45;;
13933;SDS011;7039;52.168;9.866;2023-09-07T15:54:32;9.23;;;4.80;;
13933;SDS011;7039;52.168;9.866;2023-09-07T15:56:59;13.48;;;5.15;;
13933;SDS011;7039;52.168;9.866;2023-09-07T15:59:27;8.02;;;5.05;;
13933;SDS011;7039;52.168;9.866;2023-09-07T16:01:53;8.13;;;4.22;;
13933;SDS011;7039;52.168;9.866;2023-09-07T16:04:20;5.88;;;5.35;;
13933;SDS011;7039;52.168;9.866;2023-09-07T16:06:46;8.73;;;5.20;;
13933;SDS011;7039;52.168;9.866;2023-09-07T16:09:13;6.30;;;5.15;;
13933;SDS011;7039;52.168;9.866;2023-09-07T16:11:39;7.90;;;4.40;;
13933;SDS011;7039;52.168;9.866;2023-09-07T16:14:06;10.60;;;4.60;;
13933;SDS011;7039;52.168;9.866;2023-09-07T16:16:34;5.47;;;4.32;;
13933;SDS011;7039;52.168;9.866;2023-09-07T16:19:00;6.35;;;4.85;;
13933;SDS011;7039;52.168;9.866;2023-09-07T16:21:27;6.38;;;4.60;;
13933;SDS011;7039;52.168;9.866;2023-09-07T16:23:55;8.68;;;4.70;;
13933;SDS011;7039;52.168;9.866;2023-09-07T16:26:22;5.82;;;4.20;;
13933;SDS011;7039;52.168;9.866;2023-09-07T16:28:49;6.50;;;4.95;;
13933;SDS011;7039;52.168;9.866;2023-09-07T16:31:15;5.90;;;4.28;;
13933;SDS011;7039;52.168;9.866;2023-09-07T16:33:43;7.15;;;4.50;;
13933;SDS011;7039;52.168;9.866;2023-09-07T16:36:10;4.97;;;4.25;;
13933;SDS011;7039;52.168;9.866;2023-09-07T16:38:36;10.40;;;5.47;;
13933;SDS011;7039;52.168;9.866;2023-09-07T16:41:03;7.75;;;4.78;;
13933;SDS011;7039;52.168;9.866;2023-09-07T16:43:30;6.32;;;5.43;;
13933;SDS011;7039;52.168;9.866;2023-09-07T16:45:57;10.10;;;4.95;;
13933;SDS011;7039;52.168;9.866;2023-09-07T16:48:24;4.97;;;4.28;;
13933;SDS011;7039;52.168;9.866;2023-09-07T16:50:52;17.17;;;5.22;;
13933;SDS011;7039;52.168;9.866;2023-09-07T16:53:19;9.90;;;4.30;;
13933;SDS011;7039;52.168;9.866;2023-09-07T16:55:46;8.57;;;4.40;;
13933;SDS011;7039;52.168;9.866;2023-09-07T16:58:13;8.65;;;4.70;;
13933;SDS011;7039;52.168;9.866;2023-09-07T17:00:39;6.75;;;4.38;;
13933;SDS011;7039;52.168;9.866;2023-09-07T17:03:06;10.45;;;4.80;;
13933;SDS011;7039;52.168;9.866;2023-09-07T17:05:33;6.47;;;4.60;;
13933;SDS011;7039;52.168;9.866;2023-09-07T17:08:01;5.95;;;5.35;;
13933;SDS011;7039;52.168;9.866;2023-09-07T17:10:28;7.05;;;4.50;;
13933;SDS011;7039;52.168;9.866;2023-09-07T17:12:55;8.13;;;5.30;;
13933;SDS011;7039;52.168;9.866;2023-09-07T17:15:22;5.22;;;4.65;;
13933;SDS011;7039;52.168;9.866;2023-09-07T17:17:50;8.60;;;5.43;;
13933;SDS011;7039;52.168;9.866;2023-09-07T17:20:16;9.07;;;4.78;;
13933;SDS011;7039;52.168;9.866;2023-09-07T17:22:43;13.43;;;5.22;;
13933;SDS011;7039;52.168;9.866;2023-09-07T17:25:13;7.57;;;4.97;;
13933;SDS011;7039;52.168;9.866;2023-09-07T17:27:41;12.40;;;5.10;;
13933;SDS011;7039;52.168;9.866;2023-09-07T17:30:08;9.95;;;5.00;;
13933;SDS011;7039;52.168;9.866;2023-09-07T17:32:35;6.80;;;4.80;;
13933;SDS011;7039;52.168;9.866;2023-09-07T17:35:02;7.13;;;5.00;;
13933;SDS011;7039;52.168;9.866;2023-09-07T17:37:30;6.82;;;5.03;;
13933;SDS011;7039;52.168;9.866;2023-09-07T17:39:57;8.98;;;4.88;;
13933;SDS011;7039;52.168;9.866;2023-09-07T17:42:25;7.65;;;5.18;;
13933;SDS011;7039;52.168;9.866;2023-09-07T17:44:52;10.55;;;5.57;;
13933;SDS011;7039;52.168;9.866;2023-09-07T17:47:18;8.00;;;5.13;;
13933;SDS011;7039;52.168;9.866;2023-09-07T17:49:47;8.80;;;5.10;;
13933;SDS011;7039;52.168;9.866;2023-09-07T17:52:13;10.88;;;5.18;;
13933;SDS011;7039;52.168;9.866;2023-09-07T17:54:40;8.85;;;5.28;;
13933;SDS011;7039;52.168;9.866;2023-09-07T17:57:07;6.22;;;4.88;;
13933;SDS011;7039;52.168;9.866;2023-09-07T17:59:35;7.53;;;4.80;;
13933;SDS011;7039;52.168;9.866;2023-09-07T18:02:01;5.85;;;4.93;;
13933;SDS011;7039;52.168;9.866;2023-09-07T18:04:28;6.53;;;5.07;;
13933;SDS011;7039;52.168;9.866;2023-09-07T18:06:54;12.55;;;5.30;;
13933;SDS011;7039;52.168;9.866;2023-09-07T18:09:21;5.68;;;4.47;;
13933;SDS011;7039;52.168;9.866;2023-09-07T18:11:47;8.23;;;5.50;;
13933;SDS011;7039;52.168;9.866;2023-09-07T18:14:14;7.95;;;4.65;;
13933;SDS011;7039;52.168;9.866;2023-09-07T18:16:41;11.43;;;5.35;;
13933;SDS011;7039;52.168;9.866;2023-09-07T18:19:08;5.28;;;4.70;;
13933;SDS011;7039;52.168;9.866;2023-09-07T18:21:36;8.23;;;5.65;;
13933;SDS011;7039;52.168;9.866;2023-09-07T18:24:03;7.00;;;5.10;;
13933;SDS011;7039;52.168;9.866;2023-09-07T18:26:30;8.50;;;5.10;;
13933;SDS011;7039;52.168;9.866;2023-09-07T18:28:57;9.13;;;5.03;;
13933;SDS011;7039;52.168;9.866;2023-09-07T18:31:23;5.78;;;4.95;;
13933;SDS011;7039;52.168;9.866;2023-09-07T18:33:51;7.07;;;4.85;;
13933;SDS011;7039;52.168;9.866;2023-09-07T18:36:18;7.95;;;5.55;;
13933;SDS011;7039;52.168;9.866;2023-09-07T18:38:44;8.30;;;4.85;;
13933;SDS011;7039;52.168;9.866;2023-09-07T18:41:10;7.90;;;5.32;;
13933;SDS011;7039;52.168;9.866;2023-09-07T18:43:37;6.25;;;5.30;;
13933;SDS011;7039;52.168;9.866;2023-09-07T18:46:04;6.78;;;5.20;;
13933;SDS011;7039;52.168;9.866;2023-09-07T18:48:31;7.95;;;5.55;;
13933;SDS011;7039;52.168;9.866;2023-09-07T18:51:02;7.00;;;5.03;;
13933;SDS011;7039;52.168;9.866;2023-09-07T18:53:30;7.33;;;4.90;;
13933;SDS011;7039;52.168;9.866;2023-09-07T18:55:56;7.93;;;5.60;;
13933;SDS011;7039;52.168;9.866;2023-09-07T18:58:23;11.40;;;5.47;;
13933;SDS011;7039;52.168;9.866;2023-09-07T19:00:49;7.00;;;5.25;;
13933;SDS011;7039;52.168;9.866;2023-09-07T19:03:16;11.83;;;5.60;;
13933;SDS011;7039;52.168;9.866;2023-09-07T19:05:43;9.10;;;6.15;;
13933;SDS011;7039;52.168;9.866;2023-09-07T19:08:11;8.20;;;5.40;;
13933;SDS011;7039;52.168;9.866;2023-09-07T19:10:37;8.73;;;5.70;;
13933;SDS011;7039;52.168;9.866;2023-09-07T19:13:04;6.70;;;5.43;;
13933;SDS011;7039;52.168;9.866;2023-09-07T19:15:30;9.57;;;5.57;;
13933;SDS011;7039;52.168;9.866;2023-09-07T19:17:57;11.53;;;4.83;;
13933;SDS011;7039;52.168;9.866;2023-09-07T19:20:24;9.73;;;5.60;;
13933;SDS011;7039;52.168;9.866;2023-09-07T19:22:50;8.67;;;4.90;;
13933;SDS011;7039;52.168;9.866;2023-09-07T19:25:18;10.00;;;5.63;;
13933;SDS011;7039;52.168;9.866;2023-09-07T19:27:44;12.00;;;5.43;;
13933;SDS011;7039;52.168;9.866;2023-09-07T19:30:11;8.43;;;5.43;;
13933;SDS011;7039;52.168;9.866;2023-09-07T19:32:37;7.20;;;5.13;;
13933;SDS011;7039;52.168;9.866;2023-09-07T19:35:04;5.73;;;5.07;;
13933;SDS011;7039;52.168;9.866;2023-09-07T19:37:31;10.47;;;5.20;;
13933;SDS011;7039;52.168;9.866;2023-09-07T19:39:58;7.17;;;5.53;;
13933;SDS011;7039;52.168;9.866;2023-09-07T19:42:26;6.80;;;5.37;;
13933;SDS011;7039;52.168;9.866;2023-09-07T19:44:53;11.57;;;5.57;;
13933;SDS011;7039;52.168;9.866;2023-09-07T19:47:20;6.10;;;4.93;;
13933;SDS011;7039;52.168;9.866;2023-09-07T19:49:47;12.63;;;5.43;;
13933;SDS011;7039;52.168;9.866;2023-09-07T19:52:13;9.37;;;4.80;;
13933;SDS011;7039;52.168;9.866;2023-09-07T19:54:40;5.63;;;5.03;;
13933;SDS011;7039;52.168;9.866;2023-09-07T19:57:06;7.93;;;5.53;;
13933;SDS011;7039;52.168;9.866;2023-09-07T19:59:34;6.43;;;5.10;;
13933;SDS011;7039;52.168;9.866;2023-09-07T20:02:01;10.70;;;5.20;;
13933;SDS011;7039;52.168;9.866;2023-09-07T20:04:29;12.27;;;6.17;;
13933;SDS011;7039;52.168;9.866;2023-09-07T20:06:56;10.33;;;4.67;;
13933;SDS011;7039;52.168;9.866;2023-09-07T20:09:22;14.33;;;5.30;;
13933;SDS011;7039;52.168;9.866;2023-09-07T20:11:49;9.00;;;5.90;;
13933;SDS011;7039;52.168;9.866;2023-09-07T20:14:16;9.83;;;5.43;;
13933;SDS011;7039;52.168;9.866;2023-09-07T20:16:46;5.97;;;4.80;;
13933;SDS011;7039;52.168;9.866;2023-09-07T20:19:12;7.83;;;5.90;;
13933;SDS011;7039;52.168;9.866;2023-09-07T20:21:39;7.40;;;5.63;;
13933;SDS011;7039;52.168;9.866;2023-09-07T20:24:05;10.40;;;5.30;;
13933;SDS011;7039;52.168;9.866;2023-09-07T20:26:33;10.07;;;5.13;;
13933;SDS011;7039;52.168;9.866;2023-09-07T20:29:00;7.40;;;5.43;;
13933;SDS011;7039;52.168;9.866;2023-09-07T20:31:26;5.90;;;5.30;;
13933;SDS011;7039;52.168;9.866;2023-09-07T20:33:54;5.43;;;4.93;;
13933;SDS011;7039;52.168;9.866;2023-09-07T20:36:21;14.03;;;5.57;;
13933;SDS011;7039;52.168;9.866;2023-09-07T20:38:48;7.60;;;5.43;;
13933;SDS011;7039;52.168;9.866;2023-09-07T20:41:44;8.07;;;5.77;;
13933;SDS011;7039;52.168;9.866;2023-09-07T20:44:47;9.80;;;5.90;;
13933;SDS011;7039;52.168;9.866;2023-09-07T20:47:13;9.37;;;6.43;;
13933;SDS011;7039;52.168;9.866;2023-09-07T20:49:41;8.00;;;6.00;;
13933;SDS011;7039;52.168;9.866;2023-09-07T20:52:08;7.30;;;5.73;;
13933;SDS011;7039;52.168;9.866;2023-09-07T20:54:37;7.13;;;5.90;;
13933;SDS011;7039;52.168;9.866;2023-09-07T20:57:06;8.87;;;5.77;;
13933;SDS011;7039;52.168;9.866;2023-09-07T20:59:33;10.00;;;5.87;;
13933;SDS011;7039;52.168;9.866;2023-09-07T21:02:00;7.30;;;5.77;;
13933;SDS011;7039;52.168;9.866;2023-09-07T21:04:26;6.60;;;5.90;;
13933;SDS011;7039;52.168;9.866;2023-09-07T22:00:33;12.97;;;6.37;;
13933;SDS011;7039;52.168;9.866;2023-09-07T22:03:00;9.50;;;6.03;;
13933;SDS011;7039;52.168;9.866;2023-09-07T22:05:27;9.73;;;6.97;;
13933;SDS011;7039;52.168;9.866;2023-09-07T22:07:53;7.23;;;6.53;;
13933;SDS011;7039;52.168;9.866;2023-09-07T22:10:20;8.73;;;6.87;;
13933;SDS011;7039;52.168;9.866;2023-09-07T22:12:47;8.97;;;6.87;;
13933;SDS011;7039;52.168;9.866;2023-09-07T22:15:13;7.73;;;6.57;;
13933;SDS011;7039;52.168;9.866;2023-09-07T22:17:49;11.53;;;7.60;;
13933;SDS011;7039;52.168;9.866;2023-09-07T22:20:15;7.30;;;6.47;;
13933;SDS011;7039;52.168;9.866;2023-09-07T22:22:46;10.77;;;7.33;;
13933;SDS011;7039;52.168;9.866;2023-09-07T22:25:13;12.10;;;7.17;;
13933;SDS011;7039;52.168;9.866;2023-09-07T22:27:39;8.87;;;6.93;;
13933;SDS011;7039;52.168;9.866;2023-09-07T22:30:07;12.87;;;7.40;;
13933;SDS011;7039;52.168;9.866;2023-09-07T22:32:34;9.13;;;6.67;;
13933;SDS011;7039;52.168;9.866;2023-09-07T22:35:03;8.63;;;7.50;;
13933;SDS011;7039;52.168;9.866;2023-09-07T22:37:30;8.93;;;6.73;;
13933;SDS011;7039;52.168;9.866;2023-09-07T22:39:57;9.03;;;6.70;;
13933;SDS011;7039;52.168;9.866;2023-09-07T22:42:23;9.90;;;6.70;;
13933;SDS011;7039;52.168;9.866;2023-09-07T22:44:50;7.10;;;6.17;;
13933;SDS011;7039;52.168;9.866;2023-09-07T22:47:18;10.40;;;6.77;;
13933;SDS011;7039;52.168;9.866;2023-09-07T22:49:45;8.03;;;6.43;;
13933;SDS011;7039;52.168;9.866;2023-09-07T22:52:13;8.50;;;6.30;;
13933;SDS011;7039;52.168;9.866;2023-09-07T22:54:40;9.40;;;5.90;;
13933;SDS011;7039;52.168;9.866;2023-09-07T22:57:11;10.90;;;6.13;;
13933;SDS011;7039;52.168;9.866;2023-09-07T22:59:40;8.70;;;6.20;;
13933;SDS011;7039;52.168;9.866;2023-09-07T23:02:07;10.23;;;6.40;;
13933;SDS011;7039;52.168;9.866;2023-09-07T23:04:37;8.83;;;5.80;;
13933;SDS011;7039;52.168;9.866;2023-09-07T23:07:05;8.90;;;6.40;;
